createdAt,value
2022-09-30T00:02:56.734Z,17.58
2022-09-30T00:07:58.514Z,15.63
2022-09-30T00:13:00.236Z,11.57
2022-09-30T00:18:01.895Z,13.85
2022-09-30T00:23:04.281Z,16.50
2022-09-30T00:28:07.976Z,15.20
2022-09-30T00:33:10.104Z,14.68
2022-09-30T00:38:11.879Z,16.30
2022-09-30T00:43:15.558Z,13.07
2022-09-30T00:48:38.911Z,13.57
2022-09-30T00:54:03.185Z,20.92
2022-09-30T00:59:10.405Z,15.85
2022-09-30T01:04:20.662Z,14.90
2022-09-30T01:09:22.488Z,16.90
2022-09-30T01:14:27.611Z,18.53
2022-09-30T01:19:44.106Z,17.88
2022-09-30T01:25:19.069Z,12.70
2022-09-30T01:30:36.285Z,12.57
2022-09-30T01:35:51.509Z,91.00
2022-09-30T01:41:11.501Z,72.20
2022-09-30T01:46:44.460Z,8.55
2022-09-30T01:52:05.658Z,14.77
2022-09-30T01:57:41.845Z,16.02
2022-09-30T02:02:49.135Z,7.97
2022-09-30T02:08:10.114Z,13.38
2022-09-30T02:13:17.971Z,10.93
2022-09-30T02:18:35.459Z,18.58
2022-09-30T02:23:42.510Z,18.38
2022-09-30T02:28:59.211Z,20.60
2022-09-30T02:34:07.504Z,20.15
2022-09-30T02:39:22.637Z,20.13
2022-09-30T02:44:24.917Z,15.57
2022-09-30T02:49:33.630Z,17.73
2022-09-30T02:54:49.890Z,20.95
2022-09-30T02:59:53.070Z,15.55
2022-09-30T03:04:54.727Z,23.38
2022-09-30T03:09:59.750Z,50.42
2022-09-30T03:15:13.007Z,106.28
2022-09-30T03:20:34.906Z,55.28
2022-09-30T03:26:04.867Z,22.73
2022-09-30T03:31:12.983Z,52.22
2022-09-30T03:36:32.095Z,63.85
2022-09-30T03:41:47.881Z,92.78
2022-09-30T03:46:54.319Z,24.80
2022-09-30T03:51:58.889Z,110.32
2022-09-30T03:57:05.125Z,50.33
2022-09-30T04:02:10.421Z,116.07
2022-09-30T04:07:12.670Z,88.18
2022-09-30T04:12:14.489Z,19.63
2022-09-30T04:17:16.381Z,64.50
2022-09-30T04:22:18.111Z,49.05
2022-09-30T04:27:19.835Z,89.28
2022-09-30T04:32:22.866Z,39.22
2022-09-30T04:37:25.743Z,26.92
2022-09-30T04:42:27.414Z,23.95
2022-09-30T04:47:30.114Z,148.10
2022-09-30T04:52:31.857Z,67.55
2022-09-30T04:57:33.582Z,19.10
2022-09-30T05:02:35.665Z,17.17
2022-09-30T05:07:37.732Z,10.00
2022-09-30T05:12:42.714Z,15.57
2022-09-30T05:17:44.519Z,12.05
2022-09-30T05:22:46.679Z,14.13
2022-09-30T05:27:49.931Z,15.38
2022-09-30T05:32:51.569Z,8.32
2022-09-30T05:37:53.526Z,20.63
2022-09-30T05:42:57.509Z,32.72
2022-09-30T05:48:00.148Z,54.30
2022-09-30T05:53:01.836Z,26.73
2022-09-30T05:58:03.490Z,14.25
2022-09-30T06:03:05.191Z,27.25
2022-09-30T06:08:07.170Z,52.78
2022-09-30T06:13:09.388Z,86.03
2022-09-30T06:18:17.014Z,46.10
2022-09-30T06:23:20.301Z,55.53
2022-09-30T06:28:22.937Z,114.15
2022-09-30T06:33:24.683Z,91.72
2022-09-30T06:38:28.663Z,62.63
2022-09-30T06:43:32.217Z,111.05
2022-09-30T06:48:43.326Z,237.80
2022-09-30T06:53:45.055Z,94.93
2022-09-30T06:58:46.905Z,213.68
2022-09-30T07:03:54.668Z,107.10
2022-09-30T07:08:56.847Z,88.32
2022-09-30T07:13:58.803Z,93.50
2022-09-30T07:19:01.910Z,171.32
2022-09-30T07:24:03.774Z,127.35
2022-09-30T07:29:07.221Z,190.77
2022-09-30T07:34:09.500Z,154.98
2022-09-30T07:39:11.322Z,102.78
2022-09-30T07:44:14.923Z,232.40
2022-09-30T07:49:25.481Z,158.95
2022-09-30T07:54:30.572Z,180.65
2022-09-30T07:59:35.463Z,43.63
2022-09-30T08:04:41.555Z,212.90
2022-09-30T08:09:45.416Z,124.05
2022-09-30T08:14:47.231Z,112.00
2022-09-30T08:19:49.192Z,247.65
2022-09-30T08:24:50.830Z,114.05
2022-09-30T08:29:55.531Z,36.08
2022-09-30T08:34:57.764Z,95.15
2022-09-30T08:39:59.601Z,179.95
2022-09-30T08:45:36.929Z,66.77
2022-09-30T08:51:07.952Z,30.73
2022-09-30T08:56:17.704Z,24.92
2022-09-30T09:01:44.307Z,26.95
2022-09-30T09:07:40.350Z,24.33
2022-09-30T09:12:56.673Z,29.92
2022-09-30T09:18:40.248Z,26.63
2022-09-30T09:23:42.539Z,32.78
2022-09-30T09:29:21.703Z,26.70
2022-09-30T09:34:25.387Z,29.65
2022-09-30T09:39:52.542Z,25.42
2022-09-30T09:45:29.102Z,26.27
2022-09-30T09:51:03.347Z,25.77
2022-09-30T09:56:18.559Z,27.05
2022-09-30T10:01:32.808Z,25.88
2022-09-30T10:06:50.069Z,22.08
2022-09-30T10:12:18.629Z,22.58
2022-09-30T10:17:35.647Z,24.00
2022-09-30T10:22:37.427Z,18.35
2022-09-30T10:27:54.846Z,20.92
2022-09-30T10:32:56.737Z,16.33
2022-09-30T10:38:00.506Z,15.40
2022-09-30T10:43:02.479Z,13.38
2022-09-30T10:48:07.922Z,12.77
2022-09-30T10:53:21.218Z,12.32
2022-09-30T10:58:29.273Z,14.05
2022-09-30T11:03:37.898Z,11.43
2022-09-30T11:08:48.743Z,9.38
2022-09-30T11:14:12.438Z,12.52
2022-09-30T11:19:49.476Z,12.15
2022-09-30T11:24:54.527Z,11.57
2022-09-30T11:30:19.380Z,9.43
2022-09-30T11:35:43.455Z,8.65
2022-09-30T11:40:45.147Z,7.60
2022-09-30T11:46:07.964Z,8.60
2022-09-30T11:51:36.010Z,8.32
2022-09-30T11:56:53.946Z,10.63
2022-09-30T12:02:01.965Z,9.70
2022-09-30T12:07:20.056Z,8.02
2022-09-30T12:12:21.885Z,8.27
2022-09-30T12:17:28.159Z,8.55
2022-09-30T12:22:40.102Z,7.15
2022-09-30T12:28:40.274Z,7.33
2022-09-30T12:34:03.884Z,6.25
2022-09-30T12:39:20.756Z,9.00
2022-09-30T12:44:51.329Z,6.25
2022-09-30T12:49:58.044Z,6.97
2022-09-30T12:55:09.998Z,7.13
2022-09-30T13:00:24.442Z,7.22
2022-09-30T13:05:32.325Z,6.22
2022-09-30T13:10:44.374Z,6.57
2022-09-30T13:15:46.694Z,5.77
2022-09-30T13:21:10.662Z,6.10
2022-09-30T13:26:27.928Z,6.18
2022-09-30T13:31:32.395Z,5.97
2022-09-30T13:36:59.078Z,5.40
2022-09-30T13:42:00.690Z,8.30
2022-09-30T13:47:15.001Z,4.88
2022-09-30T13:52:33.945Z,6.00
2022-09-30T13:57:51.943Z,8.75
2022-09-30T14:03:06.576Z,6.43
2022-09-30T14:08:39.015Z,6.07
2022-09-30T14:13:59.296Z,7.70
2022-09-30T14:19:16.320Z,5.22
2022-09-30T14:24:35.146Z,7.05
2022-09-30T14:29:57.670Z,6.70
2022-09-30T14:35:06.767Z,5.15
2022-09-30T14:40:12.324Z,5.47
2022-09-30T14:45:35.467Z,8.15
2022-09-30T14:50:50.631Z,7.50
2022-09-30T14:55:52.671Z,8.23
2022-09-30T15:01:03.144Z,5.47
2022-09-30T15:06:15.999Z,6.60
2022-09-30T15:11:20.313Z,7.60
2022-09-30T15:16:24.323Z,6.03
2022-09-30T15:21:30.574Z,4.63
2022-09-30T15:26:34.584Z,5.78
2022-09-30T15:31:43.965Z,4.65
2022-09-30T15:36:48.340Z,5.00
2022-09-30T15:41:51.811Z,11.95
2022-09-30T15:47:07.101Z,9.75
2022-09-30T15:52:23.944Z,5.22
2022-09-30T15:57:45.852Z,6.72
2022-09-30T16:02:47.653Z,8.80
2022-09-30T16:07:49.484Z,6.50
2022-09-30T16:17:53.245Z,7.23
2022-09-30T16:22:55.887Z,6.75
2022-09-30T16:28:14.853Z,7.07
2022-09-30T16:33:17.304Z,5.70
2022-09-30T16:38:19.951Z,5.13
2022-09-30T16:43:22.044Z,6.20
2022-09-30T16:48:26.088Z,4.27
2022-09-30T16:53:27.888Z,10.05
2022-09-30T16:58:31.372Z,8.60
2022-09-30T17:03:33.982Z,6.75
2022-09-30T17:08:36.165Z,10.30
2022-09-30T17:13:38.022Z,6.13
2022-09-30T17:18:40.237Z,7.55
2022-09-30T17:23:41.916Z,6.07
2022-09-30T17:28:44.997Z,12.60
2022-09-30T17:33:46.692Z,6.63
2022-09-30T17:38:53.679Z,8.82
2022-09-30T17:43:55.775Z,11.38
2022-09-30T17:48:57.518Z,5.90
2022-09-30T17:54:01.789Z,11.18
2022-09-30T17:59:03.697Z,8.95
2022-09-30T18:04:05.378Z,10.77
2022-09-30T18:09:07.210Z,9.07
2022-09-30T18:14:10.888Z,10.30
2022-09-30T18:24:14.375Z,11.10
2022-09-30T18:29:16.144Z,7.88
2022-09-30T18:34:19.039Z,9.20
2022-09-30T18:44:25.109Z,6.78
2022-09-30T18:49:26.829Z,10.75
2022-09-30T18:54:29.878Z,13.70
2022-09-30T18:59:31.604Z,10.02
2022-09-30T19:04:33.310Z,14.70
2022-09-30T19:09:35.063Z,7.85
2022-09-30T19:14:37.391Z,7.85
2022-09-30T19:19:41.192Z,8.30
2022-09-30T19:24:42.847Z,9.80
2022-09-30T19:29:44.651Z,10.80
2022-09-30T19:34:52.255Z,10.55
2022-09-30T19:40:00.304Z,10.03
2022-09-30T19:45:07.098Z,11.80
2022-09-30T19:50:09.159Z,8.82
2022-09-30T19:55:16.262Z,10.13
2022-09-30T20:00:18.826Z,14.13
2022-09-30T20:05:20.616Z,11.85
2022-09-30T20:10:23.997Z,9.50
2022-09-30T20:15:46.361Z,9.05
2022-09-30T20:20:48.370Z,6.78
2022-09-30T20:25:53.915Z,12.10
2022-09-30T20:30:55.745Z,15.77
2022-09-30T20:36:00.115Z,17.83
2022-09-30T20:41:03.560Z,10.23
2022-09-30T20:46:08.263Z,10.93
2022-09-30T20:51:12.297Z,14.20
2022-09-30T20:56:15.137Z,10.75
2022-09-30T21:01:19.254Z,14.18
2022-09-30T21:06:25.822Z,10.85
2022-09-30T21:11:27.473Z,12.57
2022-09-30T21:16:29.670Z,11.38
2022-09-30T21:21:31.795Z,12.82
2022-09-30T21:26:33.730Z,11.93
2022-09-30T21:36:40.162Z,10.35
2022-09-30T21:41:42.746Z,10.00
2022-09-30T21:46:48.549Z,13.85
2022-09-30T21:51:52.907Z,14.73
2022-09-30T21:56:54.637Z,9.43
2022-09-30T22:01:59.444Z,10.20
2022-09-30T22:07:01.206Z,11.02
2022-09-30T22:12:09.037Z,14.40
2022-09-30T22:17:10.710Z,15.40
2022-09-30T22:22:12.385Z,12.98
2022-09-30T22:27:14.647Z,14.65
2022-09-30T22:32:16.425Z,11.68
2022-09-30T22:37:37.057Z,11.80
2022-09-30T22:42:39.217Z,11.48
2022-09-30T22:47:41.497Z,13.10
2022-09-30T22:52:43.126Z,9.00
2022-09-30T22:57:44.923Z,8.32
2022-09-30T23:02:48.291Z,17.15
2022-09-30T23:07:52.819Z,21.67
2022-09-30T23:12:54.475Z,24.90
2022-09-30T23:17:56.527Z,20.08
2022-09-30T23:22:58.235Z,18.23
2022-09-30T23:28:00.210Z,18.92
2022-09-30T23:33:01.931Z,21.33
2022-09-30T23:38:03.665Z,32.53
2022-09-30T23:43:05.309Z,28.17
2022-09-30T23:48:07.266Z,38.97
2022-09-30T23:53:09.321Z,33.80
2022-09-30T23:58:10.978Z,26.98
